sensor_id;sensor_type;location;lat;lon;timestamp;P1;durP1;ratioP1;P2;durP2;ratioP2
15216;SDS011;7711;46.634;14.318;2023-04-01T00:01:25;2.30;;;2.10;;
15216;SDS011;7711;46.634;14.318;2023-04-01T00:03:52;2.53;;;1.93;;
15216;SDS011;7711;46.634;14.318;2023-04-01T00:06:21;2.23;;;2.03;;
15216;SDS011;7711;46.634;14.318;2023-04-01T00:08:49;2.30;;;2.10;;
15216;SDS011;7711;46.634;14.318;2023-04-01T00:11:16;2.30;;;2.10;;
15216;SDS011;7711;46.634;14.318;2023-04-01T00:13:44;3.30;;;2.13;;
15216;SDS011;7711;46.634;14.318;2023-04-01T00:16:12;2.73;;;2.00;;
15216;SDS011;7711;46.634;14.318;2023-04-01T00:18:41;2.33;;;1.97;;
15216;SDS011;7711;46.634;14.318;2023-04-01T00:21:08;4.23;;;2.27;;
15216;SDS011;7711;46.634;14.318;2023-04-01T00:23:35;3.60;;;2.93;;
15216;SDS011;7711;46.634;14.318;2023-04-01T00:26:03;5.73;;;3.93;;
15216;SDS011;7711;46.634;14.318;2023-04-01T00:28:30;6.17;;;3.43;;
15216;SDS011;7711;46.634;14.318;2023-04-01T00:31:03;4.77;;;2.70;;
15216;SDS011;7711;46.634;14.318;2023-04-01T00:33:31;4.07;;;3.00;;
15216;SDS011;7711;46.634;14.318;2023-04-01T00:36:06;3.33;;;3.00;;
15216;SDS011;7711;46.634;14.318;2023-04-01T00:38:35;3.10;;;2.80;;
15216;SDS011;7711;46.634;14.318;2023-04-01T00:41:02;3.90;;;3.10;;
15216;SDS011;7711;46.634;14.318;2023-04-01T00:43:30;3.10;;;2.80;;
15216;SDS011;7711;46.634;14.318;2023-04-01T00:45:57;4.53;;;2.97;;
15216;SDS011;7711;46.634;14.318;2023-04-01T00:48:26;3.47;;;3.17;;
15216;SDS011;7711;46.634;14.318;2023-04-01T00:50:56;3.80;;;2.97;;
15216;SDS011;7711;46.634;14.318;2023-04-01T00:53:28;3.00;;;2.70;;
15216;SDS011;7711;46.634;14.318;2023-04-01T00:56:00;3.40;;;3.10;;
15216;SDS011;7711;46.634;14.318;2023-04-01T00:58:31;5.23;;;2.90;;
15216;SDS011;7711;46.634;14.318;2023-04-01T01:01:02;4.90;;;2.97;;
15216;SDS011;7711;46.634;14.318;2023-04-01T01:03:29;3.13;;;2.87;;
15216;SDS011;7711;46.634;14.318;2023-04-01T01:06:03;4.70;;;3.10;;
15216;SDS011;7711;46.634;14.318;2023-04-01T01:08:46;3.87;;;3.03;;
15216;SDS011;7711;46.634;14.318;2023-04-01T01:11:25;3.63;;;2.97;;
15216;SDS011;7711;46.634;14.318;2023-04-01T01:14:01;4.57;;;3.53;;
15216;SDS011;7711;46.634;14.318;2023-04-01T01:16:36;4.20;;;3.17;;
15216;SDS011;7711;46.634;14.318;2023-04-01T01:19:07;3.60;;;3.10;;
15216;SDS011;7711;46.634;14.318;2023-04-01T01:21:52;3.13;;;2.83;;
15216;SDS011;7711;46.634;14.318;2023-04-01T01:24:44;3.00;;;2.70;;
15216;SDS011;7711;46.634;14.318;2023-04-01T01:27:25;3.93;;;3.30;;
15216;SDS011;7711;46.634;14.318;2023-04-01T01:30:01;3.37;;;3.07;;
15216;SDS011;7711;46.634;14.318;2023-04-01T01:33:02;2.90;;;2.70;;
15216;SDS011;7711;46.634;14.318;2023-04-01T01:35:43;3.40;;;3.07;;
15216;SDS011;7711;46.634;14.318;2023-04-01T01:38:14;3.77;;;3.13;;
15216;SDS011;7711;46.634;14.318;2023-04-01T01:40:44;3.83;;;3.10;;
15216;SDS011;7711;46.634;14.318;2023-04-01T01:43:14;3.30;;;2.90;;
15216;SDS011;7711;46.634;14.318;2023-04-01T01:45:46;4.03;;;2.97;;
15216;SDS011;7711;46.634;14.318;2023-04-01T01:48:15;3.93;;;3.30;;
15216;SDS011;7711;46.634;14.318;2023-04-01T01:50:45;3.40;;;3.10;;
15216;SDS011;7711;46.634;14.318;2023-04-01T01:53:14;5.70;;;3.00;;
15216;SDS011;7711;46.634;14.318;2023-04-01T01:55:42;4.77;;;3.43;;
15216;SDS011;7711;46.634;14.318;2023-04-01T01:58:11;3.63;;;3.20;;
15216;SDS011;7711;46.634;14.318;2023-04-01T02:00:43;3.67;;;3.27;;
15216;SDS011;7711;46.634;14.318;2023-04-01T02:03:14;3.30;;;3.00;;
15216;SDS011;7711;46.634;14.318;2023-04-01T02:05:44;3.60;;;3.30;;
15216;SDS011;7711;46.634;14.318;2023-04-01T02:08:13;4.70;;;3.70;;
15216;SDS011;7711;46.634;14.318;2023-04-01T02:10:45;4.17;;;3.43;;
15216;SDS011;7711;46.634;14.318;2023-04-01T02:13:21;5.80;;;3.63;;
15216;SDS011;7711;46.634;14.318;2023-04-01T02:15:52;3.90;;;3.50;;
15216;SDS011;7711;46.634;14.318;2023-04-01T02:18:25;3.87;;;3.23;;
15216;SDS011;7711;46.634;14.318;2023-04-01T02:20:55;3.87;;;3.50;;
15216;SDS011;7711;46.634;14.318;2023-04-01T02:23:23;4.10;;;3.70;;
15216;SDS011;7711;46.634;14.318;2023-04-01T02:25:51;4.97;;;3.07;;
15216;SDS011;7711;46.634;14.318;2023-04-01T02:28:19;3.30;;;3.00;;
15216;SDS011;7711;46.634;14.318;2023-04-01T02:30:48;4.13;;;3.07;;
15216;SDS011;7711;46.634;14.318;2023-04-01T02:33:16;3.20;;;2.90;;
15216;SDS011;7711;46.634;14.318;2023-04-01T02:35:45;5.50;;;3.30;;
15216;SDS011;7711;46.634;14.318;2023-04-01T02:38:14;3.30;;;3.00;;
15216;SDS011;7711;46.634;14.318;2023-04-01T02:40:45;3.27;;;2.93;;
15216;SDS011;7711;46.634;14.318;2023-04-01T02:43:15;3.60;;;3.27;;
15216;SDS011;7711;46.634;14.318;2023-04-01T02:45:44;4.13;;;3.73;;
15216;SDS011;7711;46.634;14.318;2023-04-01T02:48:11;4.07;;;3.63;;
15216;SDS011;7711;46.634;14.318;2023-04-01T02:50:39;4.07;;;3.70;;
15216;SDS011;7711;46.634;14.318;2023-04-01T02:53:06;4.67;;;3.83;;
15216;SDS011;7711;46.634;14.318;2023-04-01T02:55:34;3.87;;;3.47;;
15216;SDS011;7711;46.634;14.318;2023-04-01T02:58:01;4.83;;;3.60;;
15216;SDS011;7711;46.634;14.318;2023-04-01T03:00:28;5.30;;;3.70;;
15216;SDS011;7711;46.634;14.318;2023-04-01T03:02:56;4.10;;;3.70;;
15216;SDS011;7711;46.634;14.318;2023-04-01T03:05:23;4.43;;;3.90;;
15216;SDS011;7711;46.634;14.318;2023-04-01T03:07:50;4.30;;;3.90;;
15216;SDS011;7711;46.634;14.318;2023-04-01T03:10:17;6.40;;;3.97;;
15216;SDS011;7711;46.634;14.318;2023-04-01T03:12:46;6.20;;;4.60;;
15216;SDS011;7711;46.634;14.318;2023-04-01T03:15:13;4.87;;;4.30;;
15216;SDS011;7711;46.634;14.318;2023-04-01T03:17:41;4.50;;;4.07;;
15216;SDS011;7711;46.634;14.318;2023-04-01T03:20:09;4.60;;;4.20;;
15216;SDS011;7711;46.634;14.318;2023-04-01T03:22:37;6.13;;;4.40;;
15216;SDS011;7711;46.634;14.318;2023-04-01T03:25:05;5.40;;;4.40;;
15216;SDS011;7711;46.634;14.318;2023-04-01T03:27:32;5.93;;;4.60;;
15216;SDS011;7711;46.634;14.318;2023-04-01T03:30:02;5.50;;;4.93;;
15216;SDS011;7711;46.634;14.318;2023-04-01T03:32:29;6.17;;;4.83;;
15216;SDS011;7711;46.634;14.318;2023-04-01T03:34:56;6.07;;;4.70;;
15216;SDS011;7711;46.634;14.318;2023-04-01T03:37:23;4.87;;;4.27;;
15216;SDS011;7711;46.634;14.318;2023-04-01T03:39:50;5.70;;;4.53;;
15216;SDS011;7711;46.634;14.318;2023-04-01T03:42:17;4.77;;;4.37;;
15216;SDS011;7711;46.634;14.318;2023-04-01T03:44:44;5.90;;;4.67;;
15216;SDS011;7711;46.634;14.318;2023-04-01T03:47:13;5.37;;;4.27;;
15216;SDS011;7711;46.634;14.318;2023-04-01T03:49:40;5.73;;;4.90;;
15216;SDS011;7711;46.634;14.318;2023-04-01T03:52:08;7.80;;;5.70;;
15216;SDS011;7711;46.634;14.318;2023-04-01T03:54:36;6.00;;;5.37;;
15216;SDS011;7711;46.634;14.318;2023-04-01T03:57:03;6.93;;;5.70;;
15216;SDS011;7711;46.634;14.318;2023-04-01T03:59:31;6.53;;;5.83;;
15216;SDS011;7711;46.634;14.318;2023-04-01T04:01:58;6.90;;;5.70;;
15216;SDS011;7711;46.634;14.318;2023-04-01T04:04:26;6.07;;;5.20;;
15216;SDS011;7711;46.634;14.318;2023-04-01T04:06:54;6.93;;;5.70;;
15216;SDS011;7711;46.634;14.318;2023-04-01T04:09:21;7.13;;;5.60;;
15216;SDS011;7711;46.634;14.318;2023-04-01T04:11:48;7.80;;;7.00;;
15216;SDS011;7711;46.634;14.318;2023-04-01T04:14:15;8.47;;;7.57;;
15216;SDS011;7711;46.634;14.318;2023-04-01T04:16:43;7.77;;;7.00;;
15216;SDS011;7711;46.634;14.318;2023-04-01T04:19:10;11.13;;;7.73;;
15216;SDS011;7711;46.634;14.318;2023-04-01T04:21:38;8.97;;;7.07;;
15216;SDS011;7711;46.634;14.318;2023-04-01T04:24:06;9.17;;;7.50;;
15216;SDS011;7711;46.634;14.318;2023-04-01T04:26:33;9.77;;;6.87;;
15216;SDS011;7711;46.634;14.318;2023-04-01T04:29:00;8.40;;;6.77;;
15216;SDS011;7711;46.634;14.318;2023-04-01T04:31:28;8.13;;;6.70;;
15216;SDS011;7711;46.634;14.318;2023-04-01T04:33:55;8.27;;;7.17;;
15216;SDS011;7711;46.634;14.318;2023-04-01T04:36:22;8.57;;;7.67;;
15216;SDS011;7711;46.634;14.318;2023-04-01T04:38:50;10.43;;;8.27;;
15216;SDS011;7711;46.634;14.318;2023-04-01T04:41:18;10.43;;;9.20;;
15216;SDS011;7711;46.634;14.318;2023-04-01T04:43:48;11.10;;;8.97;;
15216;SDS011;7711;46.634;14.318;2023-04-01T04:46:17;12.27;;;10.10;;
15216;SDS011;7711;46.634;14.318;2023-04-01T04:48:45;11.07;;;9.67;;
15216;SDS011;7711;46.634;14.318;2023-04-01T04:51:13;11.63;;;10.43;;
15216;SDS011;7711;46.634;14.318;2023-04-01T04:53:41;10.67;;;9.53;;
15216;SDS011;7711;46.634;14.318;2023-04-01T04:56:10;11.07;;;9.97;;
15216;SDS011;7711;46.634;14.318;2023-04-01T04:58:37;13.37;;;9.30;;
15216;SDS011;7711;46.634;14.318;2023-04-01T05:01:06;11.73;;;10.33;;
15216;SDS011;7711;46.634;14.318;2023-04-01T05:03:34;11.10;;;9.60;;
15216;SDS011;7711;46.634;14.318;2023-04-01T05:06:01;13.43;;;10.83;;
15216;SDS011;7711;46.634;14.318;2023-04-01T05:08:28;9.80;;;8.73;;
15216;SDS011;7711;46.634;14.318;2023-04-01T05:10:55;12.70;;;10.87;;
15216;SDS011;7711;46.634;14.318;2023-04-01T05:13:24;11.67;;;9.43;;
15216;SDS011;7711;46.634;14.318;2023-04-01T05:15:51;11.13;;;9.93;;
15216;SDS011;7711;46.634;14.318;2023-04-01T05:18:18;9.70;;;8.20;;
15216;SDS011;7711;46.634;14.318;2023-04-01T05:20:45;9.10;;;8.20;;
15216;SDS011;7711;46.634;14.318;2023-04-01T05:23:14;8.97;;;8.03;;
15216;SDS011;7711;46.634;14.318;2023-04-01T05:25:41;10.40;;;8.20;;
15216;SDS011;7711;46.634;14.318;2023-04-01T05:28:08;9.30;;;8.30;;
15216;SDS011;7711;46.634;14.318;2023-04-01T05:30:36;7.93;;;7.10;;
15216;SDS011;7711;46.634;14.318;2023-04-01T05:33:07;6.90;;;6.20;;
15216;SDS011;7711;46.634;14.318;2023-04-01T05:35:34;7.43;;;6.63;;
15216;SDS011;7711;46.634;14.318;2023-04-01T05:38:02;6.93;;;6.23;;
15216;SDS011;7711;46.634;14.318;2023-04-01T05:40:29;6.83;;;6.13;;
15216;SDS011;7711;46.634;14.318;2023-04-01T05:42:57;7.43;;;5.70;;
15216;SDS011;7711;46.634;14.318;2023-04-01T05:45:24;6.17;;;5.57;;
15216;SDS011;7711;46.634;14.318;2023-04-01T05:47:53;6.07;;;5.13;;
15216;SDS011;7711;46.634;14.318;2023-04-01T05:50:20;6.53;;;5.37;;
15216;SDS011;7711;46.634;14.318;2023-04-01T05:52:47;6.47;;;5.27;;
15216;SDS011;7711;46.634;14.318;2023-04-01T05:55:15;5.80;;;5.30;;
15216;SDS011;7711;46.634;14.318;2023-04-01T05:57:44;5.87;;;5.27;;
15216;SDS011;7711;46.634;14.318;2023-04-01T06:00:13;5.53;;;5.03;;
15216;SDS011;7711;46.634;14.318;2023-04-01T06:02:41;5.90;;;4.97;;
15216;SDS011;7711;46.634;14.318;2023-04-01T06:05:15;5.47;;;4.97;;
15216;SDS011;7711;46.634;14.318;2023-04-01T06:07:45;6.83;;;5.43;;
15216;SDS011;7711;46.634;14.318;2023-04-01T06:10:14;5.93;;;5.43;;
15216;SDS011;7711;46.634;14.318;2023-04-01T06:12:46;6.03;;;4.93;;
15216;SDS011;7711;46.634;14.318;2023-04-01T06:15:29;6.93;;;5.20;;
15216;SDS011;7711;46.634;14.318;2023-04-01T06:21:08;5.70;;;5.17;;
15216;SDS011;7711;46.634;14.318;2023-04-01T06:23:57;6.20;;;5.60;;
15216;SDS011;7711;46.634;14.318;2023-04-01T06:26:32;7.07;;;5.70;;
15216;SDS011;7711;46.634;14.318;2023-04-01T06:29:18;5.83;;;5.23;;
15216;SDS011;7711;46.634;14.318;2023-04-01T06:32:05;7.43;;;6.00;;
15216;SDS011;7711;46.634;14.318;2023-04-01T06:34:55;6.23;;;5.63;;
15216;SDS011;7711;46.634;14.318;2023-04-01T06:37:54;6.47;;;5.87;;
15216;SDS011;7711;46.634;14.318;2023-04-01T06:40:44;6.80;;;5.87;;
15216;SDS011;7711;46.634;14.318;2023-04-01T06:43:30;6.97;;;5.93;;
15216;SDS011;7711;46.634;14.318;2023-04-01T06:46:11;6.90;;;6.20;;
15216;SDS011;7711;46.634;14.318;2023-04-01T06:48:50;6.90;;;6.20;;
15216;SDS011;7711;46.634;14.318;2023-04-01T06:51:31;6.17;;;5.63;;
15216;SDS011;7711;46.634;14.318;2023-04-01T06:54:07;9.53;;;5.73;;
15216;SDS011;7711;46.634;14.318;2023-04-01T06:56:38;5.13;;;4.70;;
15216;SDS011;7711;46.634;14.318;2023-04-01T06:59:10;5.33;;;4.83;;
15216;SDS011;7711;46.634;14.318;2023-04-01T07:01:41;5.23;;;4.73;;
15216;SDS011;7711;46.634;14.318;2023-04-01T07:04:13;4.97;;;4.57;;
15216;SDS011;7711;46.634;14.318;2023-04-01T07:06:43;4.60;;;4.20;;
15216;SDS011;7711;46.634;14.318;2023-04-01T07:09:16;4.73;;;4.17;;
15216;SDS011;7711;46.634;14.318;2023-04-01T07:11:45;4.17;;;3.77;;
15216;SDS011;7711;46.634;14.318;2023-04-01T07:14:14;4.50;;;4.07;;
15216;SDS011;7711;46.634;14.318;2023-04-01T07:16:47;5.07;;;3.63;;
15216;SDS011;7711;46.634;14.318;2023-04-01T07:19:19;4.47;;;4.07;;
15216;SDS011;7711;46.634;14.318;2023-04-01T07:21:51;4.27;;;3.87;;
15216;SDS011;7711;46.634;14.318;2023-04-01T07:24:24;4.10;;;3.70;;
15216;SDS011;7711;46.634;14.318;2023-04-01T07:26:53;4.00;;;3.70;;
15216;SDS011;7711;46.634;14.318;2023-04-01T07:29:22;4.63;;;4.00;;
15216;SDS011;7711;46.634;14.318;2023-04-01T07:31:53;4.50;;;3.80;;
15216;SDS011;7711;46.634;14.318;2023-04-01T07:34:34;4.20;;;3.77;;
15216;SDS011;7711;46.634;14.318;2023-04-01T07:37:12;5.57;;;3.43;;
15216;SDS011;7711;46.634;14.318;2023-04-01T07:39:46;4.10;;;3.77;;
15216;SDS011;7711;46.634;14.318;2023-04-01T07:42:22;4.40;;;4.00;;
15216;SDS011;7711;46.634;14.318;2023-04-01T07:45:01;4.00;;;3.63;;
15216;SDS011;7711;46.634;14.318;2023-04-01T07:50:27;5.93;;;4.50;;
15216;SDS011;7711;46.634;14.318;2023-04-01T07:52:59;3.80;;;3.50;;
15216;SDS011;7711;46.634;14.318;2023-04-01T07:55:37;7.70;;;4.80;;
15216;SDS011;7711;46.634;14.318;2023-04-01T07:58:10;5.27;;;4.37;;
15216;SDS011;7711;46.634;14.318;2023-04-01T08:00:46;4.60;;;4.20;;
15216;SDS011;7711;46.634;14.318;2023-04-01T08:03:23;4.57;;;4.17;;
15216;SDS011;7711;46.634;14.318;2023-04-01T08:06:00;4.50;;;4.10;;
15216;SDS011;7711;46.634;14.318;2023-04-01T08:08:36;5.30;;;4.80;;
15216;SDS011;7711;46.634;14.318;2023-04-01T08:11:15;3.97;;;3.67;;
15216;SDS011;7711;46.634;14.318;2023-04-01T08:13:50;4.27;;;3.87;;
15216;SDS011;7711;46.634;14.318;2023-04-01T08:16:29;4.57;;;4.17;;
15216;SDS011;7711;46.634;14.318;2023-04-01T08:19:02;4.00;;;3.60;;
15216;SDS011;7711;46.634;14.318;2023-04-01T08:21:42;4.70;;;4.30;;
15216;SDS011;7711;46.634;14.318;2023-04-01T08:24:16;4.53;;;4.00;;
15216;SDS011;7711;46.634;14.318;2023-04-01T08:26:51;5.10;;;4.33;;
15216;SDS011;7711;46.634;14.318;2023-04-01T08:29:23;4.30;;;3.90;;
15216;SDS011;7711;46.634;14.318;2023-04-01T08:32:01;4.53;;;4.13;;
15216;SDS011;7711;46.634;14.318;2023-04-01T08:34:33;4.90;;;4.20;;
15216;SDS011;7711;46.634;14.318;2023-04-01T08:37:04;4.10;;;3.73;;
15216;SDS011;7711;46.634;14.318;2023-04-01T08:39:35;4.37;;;3.97;;
15216;SDS011;7711;46.634;14.318;2023-04-01T08:42:21;4.93;;;4.13;;
15216;SDS011;7711;46.634;14.318;2023-04-01T08:45:29;5.03;;;4.40;;
15216;SDS011;7711;46.634;14.318;2023-04-01T08:48:28;4.60;;;4.20;;
15216;SDS011;7711;46.634;14.318;2023-04-01T08:51:23;4.47;;;4.07;;
15216;SDS011;7711;46.634;14.318;2023-04-01T08:54:05;5.53;;;4.30;;
15216;SDS011;7711;46.634;14.318;2023-04-01T08:56:55;4.63;;;3.93;;
15216;SDS011;7711;46.634;14.318;2023-04-01T08:59:32;4.67;;;3.70;;
15216;SDS011;7711;46.634;14.318;2023-04-01T09:08:28;4.13;;;3.20;;
15216;SDS011;7711;46.634;14.318;2023-04-01T09:11:05;3.80;;;3.40;;
15216;SDS011;7711;46.634;14.318;2023-04-01T09:13:50;3.20;;;2.90;;
15216;SDS011;7711;46.634;14.318;2023-04-01T09:16:44;3.20;;;2.90;;
15216;SDS011;7711;46.634;14.318;2023-04-01T09:19:46;3.50;;;3.20;;
15216;SDS011;7711;46.634;14.318;2023-04-01T09:22:37;5.00;;;3.47;;
15216;SDS011;7711;46.634;14.318;2023-04-01T09:25:17;4.63;;;3.20;;
15216;SDS011;7711;46.634;14.318;2023-04-01T09:28:09;4.17;;;3.10;;
15216;SDS011;7711;46.634;14.318;2023-04-01T09:33:48;3.60;;;2.87;;
15216;SDS011;7711;46.634;14.318;2023-04-01T09:36:43;3.60;;;3.30;;
15216;SDS011;7711;46.634;14.318;2023-04-01T09:39:17;3.40;;;3.10;;
15216;SDS011;7711;46.634;14.318;2023-04-01T09:41:59;3.30;;;3.00;;
15216;SDS011;7711;46.634;14.318;2023-04-01T09:44:43;3.10;;;2.80;;
15216;SDS011;7711;46.634;14.318;2023-04-01T09:47:23;4.10;;;3.20;;
15216;SDS011;7711;46.634;14.318;2023-04-01T09:53:09;3.03;;;2.80;;
15216;SDS011;7711;46.634;14.318;2023-04-01T10:08:16;2.90;;;2.70;;
15216;SDS011;7711;46.634;14.318;2023-04-01T10:11:09;3.53;;;2.97;;
15216;SDS011;7711;46.634;14.318;2023-04-01T10:17:20;3.00;;;2.70;;
15216;SDS011;7711;46.634;14.318;2023-04-01T10:20:28;3.73;;;2.83;;
15216;SDS011;7711;46.634;14.318;2023-04-01T10:23:18;2.97;;;2.50;;
15216;SDS011;7711;46.634;14.318;2023-04-01T10:26:07;3.28;;;2.97;;
15216;SDS011;7711;46.634;14.318;2023-04-01T10:35:09;4.18;;;2.88;;
15216;SDS011;7711;46.634;14.318;2023-04-01T10:38:10;3.90;;;2.83;;
15216;SDS011;7711;46.634;14.318;2023-04-01T10:40:59;3.30;;;3.00;;
15216;SDS011;7711;46.634;14.318;2023-04-01T10:44:21;3.27;;;2.97;;
15216;SDS011;7711;46.634;14.318;2023-04-01T10:50:21;5.40;;;3.00;;
15216;SDS011;7711;46.634;14.318;2023-04-01T10:56:06;3.10;;;2.80;;
15216;SDS011;7711;46.634;14.318;2023-04-01T11:02:27;2.97;;;2.78;;
15216;SDS011;7711;46.634;14.318;2023-04-01T11:11:39;3.35;;;3.05;;
15216;SDS011;7711;46.634;14.318;2023-04-01T11:14:35;2.80;;;2.60;;
15216;SDS011;7711;46.634;14.318;2023-04-01T11:20:35;2.70;;;2.50;;
15216;SDS011;7711;46.634;14.318;2023-04-01T11:23:28;3.65;;;2.42;;
15216;SDS011;7711;46.634;14.318;2023-04-01T11:26:16;2.72;;;2.42;;
15216;SDS011;7711;46.634;14.318;2023-04-01T11:29:06;2.25;;;2.08;;
15216;SDS011;7711;46.634;14.318;2023-04-01T11:31:54;2.50;;;2.30;;
15216;SDS011;7711;46.634;14.318;2023-04-01T11:34:41;4.38;;;2.42;;
15216;SDS011;7711;46.634;14.318;2023-04-01T11:37:28;2.33;;;2.13;;
15216;SDS011;7711;46.634;14.318;2023-04-01T11:40:09;2.20;;;2.00;;
15216;SDS011;7711;46.634;14.318;2023-04-01T11:42:49;2.80;;;1.98;;
15216;SDS011;7711;46.634;14.318;2023-04-01T11:45:25;2.80;;;2.00;;
15216;SDS011;7711;46.634;14.318;2023-04-01T11:48:09;2.60;;;2.03;;
15216;SDS011;7711;46.634;14.318;2023-04-01T11:50:50;2.20;;;2.00;;
15216;SDS011;7711;46.634;14.318;2023-04-01T11:53:26;1.92;;;1.80;;
15216;SDS011;7711;46.634;14.318;2023-04-01T11:56:03;2.13;;;1.92;;
15216;SDS011;7711;46.634;14.318;2023-04-01T11:58:46;2.60;;;2.10;;
15216;SDS011;7711;46.634;14.318;2023-04-01T12:01:38;2.03;;;1.83;;
15216;SDS011;7711;46.634;14.318;2023-04-01T12:04:36;1.80;;;1.70;;
15216;SDS011;7711;46.634;14.318;2023-04-01T12:07:19;2.10;;;2.00;;
15216;SDS011;7711;46.634;14.318;2023-04-01T12:09:56;2.33;;;2.10;;
15216;SDS011;7711;46.634;14.318;2023-04-01T12:12:32;3.58;;;2.13;;
15216;SDS011;7711;46.634;14.318;2023-04-01T12:15:13;1.77;;;1.67;;
15216;SDS011;7711;46.634;14.318;2023-04-01T12:17:48;2.13;;;1.88;;
15216;SDS011;7711;46.634;14.318;2023-04-01T12:20:22;1.80;;;1.70;;
15216;SDS011;7711;46.634;14.318;2023-04-01T12:23:01;2.88;;;1.92;;
15216;SDS011;7711;46.634;14.318;2023-04-01T12:25:51;2.42;;;1.80;;
15216;SDS011;7711;46.634;14.318;2023-04-01T12:28:36;1.88;;;1.77;;
15216;SDS011;7711;46.634;14.318;2023-04-01T12:31:15;1.83;;;1.73;;
15216;SDS011;7711;46.634;14.318;2023-04-01T12:37:08;3.10;;;2.50;;
15216;SDS011;7711;46.634;14.318;2023-04-01T12:40:02;20.83;;;18.88;;
15216;SDS011;7711;46.634;14.318;2023-04-01T12:42:52;2.08;;;1.95;;
15216;SDS011;7711;46.634;14.318;2023-04-01T12:45:29;1.80;;;1.70;;
15216;SDS011;7711;46.634;14.318;2023-04-01T12:48:03;1.80;;;1.70;;
15216;SDS011;7711;46.634;14.318;2023-04-01T12:53:46;2.45;;;2.25;;
15216;SDS011;7711;46.634;14.318;2023-04-01T12:56:37;2.03;;;1.92;;
15216;SDS011;7711;46.634;14.318;2023-04-01T12:59:17;1.90;;;1.60;;
15216;SDS011;7711;46.634;14.318;2023-04-01T13:02:04;1.88;;;1.75;;
15216;SDS011;7711;46.634;14.318;2023-04-01T13:04:51;1.55;;;1.45;;
15216;SDS011;7711;46.634;14.318;2023-04-01T13:10:37;1.70;;;1.60;;
15216;SDS011;7711;46.634;14.318;2023-04-01T13:13:21;1.52;;;1.42;;
15216;SDS011;7711;46.634;14.318;2023-04-01T13:16:01;1.80;;;1.70;;
15216;SDS011;7711;46.634;14.318;2023-04-01T13:18:33;1.65;;;1.55;;
15216;SDS011;7711;46.634;14.318;2023-04-01T13:21:09;2.47;;;1.80;;
15216;SDS011;7711;46.634;14.318;2023-04-01T13:23:45;2.17;;;1.90;;
15216;SDS011;7711;46.634;14.318;2023-04-01T13:26:22;1.90;;;1.80;;
15216;SDS011;7711;46.634;14.318;2023-04-01T13:28:56;1.77;;;1.65;;
15216;SDS011;7711;46.634;14.318;2023-04-01T13:31:32;1.73;;;1.63;;
15216;SDS011;7711;46.634;14.318;2023-04-01T13:34:13;1.98;;;1.80;;
15216;SDS011;7711;46.634;14.318;2023-04-01T13:36:56;1.90;;;1.80;;
15216;SDS011;7711;46.634;14.318;2023-04-01T13:39:34;2.10;;;1.90;;
15216;SDS011;7711;46.634;14.318;2023-04-01T13:42:14;1.55;;;1.45;;
15216;SDS011;7711;46.634;14.318;2023-04-01T13:44:48;2.33;;;1.85;;
15216;SDS011;7711;46.634;14.318;2023-04-01T13:47:24;1.60;;;1.50;;
15216;SDS011;7711;46.634;14.318;2023-04-01T13:53:26;2.60;;;1.70;;
15216;SDS011;7711;46.634;14.318;2023-04-01T13:56:06;1.83;;;1.73;;
15216;SDS011;7711;46.634;14.318;2023-04-01T13:58:57;2.20;;;2.00;;
15216;SDS011;7711;46.634;14.318;2023-04-01T14:01:36;3.67;;;2.22;;
15216;SDS011;7711;46.634;14.318;2023-04-01T14:04:18;1.90;;;1.80;;
15216;SDS011;7711;46.634;14.318;2023-04-01T14:07:08;1.90;;;1.80;;
15216;SDS011;7711;46.634;14.318;2023-04-01T14:09:46;1.90;;;1.80;;
15216;SDS011;7711;46.634;14.318;2023-04-01T14:12:27;4.45;;;2.00;;
15216;SDS011;7711;46.634;14.318;2023-04-01T14:15:04;2.20;;;2.00;;
15216;SDS011;7711;46.634;14.318;2023-04-01T14:17:49;1.88;;;1.77;;
15216;SDS011;7711;46.634;14.318;2023-04-01T14:20:32;2.10;;;1.90;;
15216;SDS011;7711;46.634;14.318;2023-04-01T14:29:20;2.33;;;1.73;;
15216;SDS011;7711;46.634;14.318;2023-04-01T14:32:05;1.92;;;1.83;;
15216;SDS011;7711;46.634;14.318;2023-04-01T14:34:40;1.92;;;1.80;;
15216;SDS011;7711;46.634;14.318;2023-04-01T14:37:22;1.90;;;1.80;;
15216;SDS011;7711;46.634;14.318;2023-04-01T14:43:10;2.33;;;1.85;;
15216;SDS011;7711;46.634;14.318;2023-04-01T14:49:18;5.72;;;2.13;;
15216;SDS011;7711;46.634;14.318;2023-04-01T14:51:48;4.07;;;2.13;;
15216;SDS011;7711;46.634;14.318;2023-04-01T14:54:18;7.43;;;2.53;;
15216;SDS011;7711;46.634;14.318;2023-04-01T14:57:01;2.90;;;2.05;;
15216;SDS011;7711;46.634;14.318;2023-04-01T14:59:38;4.78;;;2.40;;
15216;SDS011;7711;46.634;14.318;2023-04-01T15:02:09;3.28;;;2.75;;
15216;SDS011;7711;46.634;14.318;2023-04-01T15:04:52;3.97;;;2.37;;
15216;SDS011;7711;46.634;14.318;2023-04-01T15:07:35;5.95;;;3.00;;
15216;SDS011;7711;46.634;14.318;2023-04-01T15:10:30;8.30;;;3.90;;
15216;SDS011;7711;46.634;14.318;2023-04-01T15:13:18;6.10;;;3.60;;
15216;SDS011;7711;46.634;14.318;2023-04-01T15:16:08;7.80;;;4.63;;
15216;SDS011;7711;46.634;14.318;2023-04-01T15:18:48;5.87;;;3.90;;
15216;SDS011;7711;46.634;14.318;2023-04-01T15:21:34;8.67;;;5.57;;
15216;SDS011;7711;46.634;14.318;2023-04-01T15:24:19;7.03;;;3.80;;
15216;SDS011;7711;46.634;14.318;2023-04-01T15:27:01;4.70;;;3.50;;
15216;SDS011;7711;46.634;14.318;2023-04-01T15:29:43;4.75;;;3.50;;
15216;SDS011;7711;46.634;14.318;2023-04-01T15:32:26;4.78;;;3.80;;
15216;SDS011;7711;46.634;14.318;2023-04-01T15:34:59;5.15;;;3.40;;
15216;SDS011;7711;46.634;14.318;2023-04-01T15:37:40;6.50;;;3.35;;
15216;SDS011;7711;46.634;14.318;2023-04-01T15:40:20;4.85;;;3.17;;
15216;SDS011;7711;46.634;14.318;2023-04-01T15:42:58;8.20;;;3.50;;
15216;SDS011;7711;46.634;14.318;2023-04-01T15:45:41;3.80;;;3.15;;
15216;SDS011;7711;46.634;14.318;2023-04-01T15:48:27;3.45;;;2.83;;
15216;SDS011;7711;46.634;14.318;2023-04-01T15:51:05;4.28;;;3.08;;
15216;SDS011;7711;46.634;14.318;2023-04-01T15:53:49;6.80;;;2.63;;
15216;SDS011;7711;46.634;14.318;2023-04-01T15:56:35;3.40;;;3.10;;
15216;SDS011;7711;46.634;14.318;2023-04-01T15:59:15;4.85;;;2.90;;
15216;SDS011;7711;46.634;14.318;2023-04-01T16:01:50;7.65;;;2.72;;
15216;SDS011;7711;46.634;14.318;2023-04-01T16:04:32;4.50;;;3.17;;
15216;SDS011;7711;46.634;14.318;2023-04-01T16:07:30;6.05;;;3.13;;
15216;SDS011;7711;46.634;14.318;2023-04-01T16:10:17;4.57;;;2.88;;
15216;SDS011;7711;46.634;14.318;2023-04-01T16:12:54;4.13;;;3.20;;
15216;SDS011;7711;46.634;14.318;2023-04-01T16:15:33;6.15;;;3.20;;
15216;SDS011;7711;46.634;14.318;2023-04-01T16:18:15;4.53;;;3.20;;
15216;SDS011;7711;46.634;14.318;2023-04-01T16:20:54;4.50;;;3.20;;
15216;SDS011;7711;46.634;14.318;2023-04-01T16:23:26;3.00;;;2.65;;
15216;SDS011;7711;46.634;14.318;2023-04-01T16:26:03;4.18;;;2.60;;
15216;SDS011;7711;46.634;14.318;2023-04-01T16:28:37;3.30;;;2.55;;
15216;SDS011;7711;46.634;14.318;2023-04-01T16:31:09;3.25;;;2.65;;
15216;SDS011;7711;46.634;14.318;2023-04-01T16:33:45;3.42;;;2.15;;
15216;SDS011;7711;46.634;14.318;2023-04-01T16:36:21;1.88;;;1.77;;
15216;SDS011;7711;46.634;14.318;2023-04-01T16:38:59;1.65;;;1.55;;
15216;SDS011;7711;46.634;14.318;2023-04-01T16:41:38;2.08;;;1.88;;
15216;SDS011;7711;46.634;14.318;2023-04-01T16:44:17;1.80;;;1.70;;
15216;SDS011;7711;46.634;14.318;2023-04-01T16:46:48;1.77;;;1.40;;
15216;SDS011;7711;46.634;14.318;2023-04-01T16:49:25;1.40;;;1.30;;
15216;SDS011;7711;46.634;14.318;2023-04-01T16:52:03;3.13;;;1.33;;
15216;SDS011;7711;46.634;14.318;2023-04-01T16:54:41;3.80;;;3.28;;
15216;SDS011;7711;46.634;14.318;2023-04-01T16:57:17;2.58;;;2.38;;
15216;SDS011;7711;46.634;14.318;2023-04-01T16:59:53;2.10;;;1.90;;
15216;SDS011;7711;46.634;14.318;2023-04-01T17:02:26;1.75;;;1.65;;
15216;SDS011;7711;46.634;14.318;2023-04-01T17:04:58;1.45;;;1.20;;
15216;SDS011;7711;46.634;14.318;2023-04-01T17:07:33;1.48;;;1.38;;